Time;durP1;ratioP1;P1;durP2;ratioP2;P2;SDS_P1;SDS_P2;PMS_P1;PMS_P2;Temp;Humidity;BMP_temperature;BMP_pressure;BME280_temperature;BME280_humidity;BME280_pressure;Samples;Min_cycle;Max_cycle;Signal;HPM_P1;HPM_P2
2021/05/31 00:00:51;;;;;;;3.47;2.50;;;;;;;12.59;48.65;154594.00;5036215;28;20526;-87
2021/05/31 00:03:27;;;;;;;2.57;2.37;;;;;;;12.54;49.08;154579.72;5052655;28;20526;-87
2021/05/31 00:06:02;;;;;;;3.50;2.33;;;;;;;12.55;48.72;154582.34;5052648;28;20458;-87
2021/05/31 00:08:38;;;;;;;3.50;3.20;;;;;;;12.50;49.35;154569.31;5035696;28;20439;-87
2021/05/31 00:11:13;;;;;;;2.60;2.40;;;;;;;12.45;49.27;154556.34;5051647;28;20445;-87
2021/05/31 00:13:49;;;;;;;2.90;2.63;;;;;;;12.43;49.52;154552.50;5051305;28;20457;-87
2021/05/31 00:16:24;;;;;;;3.53;2.83;;;;;;;12.35;49.68;154530.44;5051222;28;20435;-87
2021/05/31 00:19:00;;;;;;;3.40;2.30;;;;;;;12.33;49.79;154526.56;5035773;28;20542;-87
2021/05/31 00:21:35;;;;;;;2.90;2.30;;;;;;;12.31;49.91;154520.09;5031457;28;20409;-87
2021/05/31 00:24:10;;;;;;;3.70;3.37;;;;;;;12.32;49.86;154522.66;5032599;28;20839;-87
2021/05/31 00:26:46;;;;;;;4.60;3.60;;;;;;;12.36;49.88;154533.03;5046349;28;20462;-87
2021/05/31 00:29:23;;;;;;;3.40;3.00;;;;;;;12.30;49.59;154517.47;5051149;28;20452;-87
2021/05/31 00:31:59;;;;;;;3.27;2.97;;;;;;;12.27;50.14;154511.00;5050986;28;20446;-87
2021/05/31 00:34:35;;;;;;;3.53;2.67;;;;;;;12.26;50.75;154508.38;5052293;28;20416;-87
2021/05/31 00:37:10;;;;;;;4.00;3.23;;;;;;;12.22;50.62;154498.03;5050852;28;20459;-87
2021/05/31 00:39:45;;;;;;;4.43;3.33;;;;;;;12.19;50.47;154490.25;5050717;28;20528;-87
2021/05/31 00:42:20;;;;;;;3.97;2.90;;;;;;;12.14;51.00;154478.59;5050961;28;20818;-87
2021/05/31 00:44:56;;;;;;;3.77;2.73;;;;;;;12.03;50.92;154448.75;5050772;28;20467;-88
2021/05/31 00:47:31;;;;;;;3.80;3.27;;;;;;;12.05;51.00;154453.94;5050823;28;20804;-87
2021/05/31 00:50:08;;;;;;;5.20;3.90;;;;;;;12.03;51.23;154448.75;5050804;28;20810;-87
2021/05/31 00:52:43;;;;;;;5.90;3.00;;;;;;;11.95;51.32;154429.31;5050756;28;20481;-87
2021/05/31 00:55:18;;;;;;;3.67;2.90;;;;;;;11.94;51.79;154426.72;5050571;28;20443;-87
2021/05/31 00:57:53;;;;;;;4.70;2.90;;;;;;;11.90;52.28;154415.06;5050624;28;20449;-87
2021/05/31 01:00:28;;;;;;;2.87;2.50;;;;;;;11.87;52.70;154408.56;5051973;28;20885;-86
2021/05/31 01:03:04;;;;;;;3.70;3.40;;;;;;;11.84;52.55;154400.78;5050930;28;20447;-86
2021/05/31 01:05:40;;;;;;;3.50;3.03;;;;;;;11.78;51.91;154385.22;5051853;28;20792;-87
2021/05/31 01:08:19;;;;;;;4.03;3.43;;;;;;;11.81;52.09;154391.75;5050427;28;20557;-87
2021/05/31 01:11:00;;;;;;;3.70;3.30;;;;;;;11.78;51.83;154383.97;5050423;28;20546;-86
2021/05/31 01:13:42;;;;;;;3.90;3.23;;;;;;;11.76;52.88;154380.06;5050676;28;20452;-87
2021/05/31 01:16:19;;;;;;;4.80;3.40;;;;;;;11.70;53.32;154364.53;5050615;28;20436;-87
2021/05/31 01:18:54;;;;;;;4.10;3.20;;;;;;;11.63;52.60;154347.63;5052921;28;20486;-86
2021/05/31 01:21:36;;;;;;;4.40;3.43;;;;;;;11.64;52.97;154348.94;5054445;28;20898;-87
2021/05/31 01:24:15;;;;;;;3.93;2.70;;;;;;;11.59;52.83;154335.97;5054620;28;20439;-86
2021/05/31 01:26:55;;;;;;;3.47;3.07;;;;;;;11.52;52.74;154319.09;5054440;28;20476;-86
2021/05/31 01:29:32;;;;;;;3.90;2.77;;;;;;;11.49;52.84;154310.06;5054397;28;20893;-86
2021/05/31 01:32:09;;;;;;;3.57;2.70;;;;;;;11.44;52.87;154297.06;5071264;28;20451;-86
2021/05/31 01:34:44;;;;;;;2.80;2.43;;;;;;;11.37;53.23;154280.25;5055761;28;20421;-86
2021/05/31 01:37:23;;;;;;;2.97;2.67;;;;;;;11.37;53.28;154278.94;5055462;28;20473;-86
2021/05/31 01:40:03;;;;;;;3.00;2.67;;;;;;;11.32;53.64;154266.00;5055525;28;20442;-86
2021/05/31 01:42:39;;;;;;;4.17;2.83;;;;;;;11.33;53.38;154268.59;5055425;28;20478;-86
2021/05/31 01:45:16;;;;;;;3.60;2.63;;;;;;;11.27;53.37;154253.03;5064102;28;20701;-86
2021/05/31 01:47:51;;;;;;;3.10;2.70;;;;;;;11.20;54.08;154236.19;5054503;28;20447;-86
2021/05/31 01:50:27;;;;;;;4.37;3.03;;;;;;;11.19;53.92;154233.63;5055727;28;20422;-86
2021/05/31 01:53:04;;;;;;;3.57;3.20;;;;;;;11.22;54.22;154240.09;5056046;28;20475;-86
2021/05/31 01:55:40;;;;;;;3.17;2.70;;;;;;;11.21;54.52;154237.47;5062721;28;20435;-86
2021/05/31 01:58:15;;;;;;;3.73;3.00;;;;;;;11.24;54.23;154246.56;5057099;28;20446;-86
2021/05/31 02:00:52;;;;;;;8.23;3.20;;;;;;;11.23;54.32;154243.97;5054432;28;20449;-86
2021/05/31 02:03:27;;;;;;;3.37;2.97;;;;;;;11.22;54.48;154241.41;5023019;28;20460;-86
2021/05/31 02:06:03;;;;;;;5.20;2.73;;;;;;;11.21;54.24;154237.47;5045286;28;20725;-85
2021/05/31 02:08:38;;;;;;;5.60;3.53;;;;;;;11.16;54.64;154224.53;5053488;28;20555;-86
2021/05/31 02:11:18;;;;;;;3.83;3.00;;;;;;;11.15;54.63;154221.94;5055047;28;20424;-86
2021/05/31 02:13:56;;;;;;;3.33;2.97;;;;;;;11.16;55.03;154225.84;5053722;28;20452;-86
2021/05/31 02:16:37;;;;;;;4.80;3.20;;;;;;;11.14;54.71;154219.38;5053518;28;20438;-86
2021/05/31 02:19:12;;;;;;;4.13;3.17;;;;;;;11.08;55.52;154205.13;5053429;28;20444;-86
2021/05/31 02:21:50;;;;;;;2.60;2.40;;;;;;;10.95;55.64;154172.75;5053487;28;20891;-86
2021/05/31 02:24:25;;;;;;;4.30;3.20;;;;;;;10.99;55.77;154181.78;5053497;28;20435;-86
2021/05/31 02:27:01;;;;;;;4.00;2.83;;;;;;;10.93;55.12;154166.28;5037754;28;20478;-86
2021/05/31 02:29:36;;;;;;;3.07;2.50;;;;;;;10.88;55.25;154153.31;5054076;28;20513;-86
2021/05/31 02:32:12;;;;;;;6.53;3.40;;;;;;;10.84;55.13;154142.94;5053120;28;21003;-85
2021/05/31 02:34:47;;;;;;;3.43;2.80;;;;;;;10.85;55.17;154146.84;5068875;28;20826;-86
2021/05/31 02:37:29;;;;;;;3.30;2.33;;;;;;;10.83;55.42;154141.63;5054208;28;20478;-86
2021/05/31 02:40:06;;;;;;;7.33;2.73;;;;;;;10.83;55.57;154141.63;5053059;28;20551;-85
2021/05/31 02:42:43;;;;;;;3.10;2.63;;;;;;;10.85;55.72;154145.53;5052949;28;20475;-86
2021/05/31 02:45:20;;;;;;;3.33;3.00;;;;;;;10.84;55.97;154144.25;5053067;28;20467;-86
2021/05/31 02:47:57;;;;;;;3.00;2.70;;;;;;;10.82;56.25;154139.06;5052947;28;20934;-86
2021/05/31 02:50:33;;;;;;;3.80;2.93;;;;;;;10.76;55.97;154122.22;5052900;28;20437;-85
2021/05/31 02:53:08;;;;;;;3.50;2.43;;;;;;;10.70;56.19;154106.66;5052492;28;21070;-86
2021/05/31 02:55:43;;;;;;;6.20;3.50;;;;;;;10.62;56.64;154087.25;5052778;28;20450;-85
2021/05/31 02:58:18;;;;;;;4.53;3.80;;;;;;;10.56;56.79;154070.44;5054275;28;20926;-85
2021/05/31 03:00:53;;;;;;;7.10;3.53;;;;;;;10.54;56.87;154066.53;5052710;28;20427;-85
2021/05/31 03:03:30;;;;;;;3.47;3.17;;;;;;;10.51;57.21;154057.50;5052520;28;20459;-85
2021/05/31 03:06:05;;;;;;;4.50;3.40;;;;;;;10.39;57.70;154029.00;5052364;28;20480;-85
2021/05/31 03:08:40;;;;;;;3.57;3.13;;;;;;;10.41;57.77;154032.88;5054315;28;20529;-85
2021/05/31 03:11:15;;;;;;;3.53;2.87;;;;;;;10.45;57.73;154041.94;5052336;28;20451;-85
2021/05/31 03:13:49;;;;;;;3.53;2.93;;;;;;;10.37;57.72;154022.53;5052706;28;20454;-85
2021/05/31 03:16:24;;;;;;;4.03;3.23;;;;;;;10.40;58.02;154030.31;5052331;28;20438;-85
2021/05/31 03:19:01;;;;;;;3.87;3.50;;;;;;;10.38;58.09;154026.41;5054132;28;20436;-85
2021/05/31 03:21:36;;;;;;;4.00;3.43;;;;;;;10.40;58.48;154030.31;5052316;28;20928;-85
2021/05/31 03:24:12;;;;;;;6.03;3.70;;;;;;;10.38;58.06;154025.09;5052351;28;20573;-85
2021/05/31 03:26:47;;;;;;;4.40;3.03;;;;;;;10.35;58.38;154018.63;5052116;28;20475;-85
2021/05/31 03:29:22;;;;;;;3.63;3.27;;;;;;;10.35;58.71;154017.38;5053474;28;20424;-85
2021/05/31 03:31:58;;;;;;;3.50;3.10;;;;;;;10.30;59.16;154004.38;5052142;28;20451;-85
2021/05/31 03:34:34;;;;;;;3.20;2.90;;;;;;;10.31;58.96;154007.00;5051929;28;20542;-85
2021/05/31 03:37:09;;;;;;;4.10;2.90;;;;;;;10.28;59.29;153999.22;5052120;28;20455;-85
2021/05/31 03:39:45;;;;;;;4.87;2.90;;;;;;;10.23;59.31;153986.28;5051895;28;20472;-85
2021/05/31 03:42:20;;;;;;;2.80;2.50;;;;;;;10.16;59.63;153968.16;5051174;28;20438;-85
2021/05/31 03:44:56;;;;;;;3.30;2.87;;;;;;;10.22;59.71;153983.66;5051621;28;20827;-85
2021/05/31 03:47:31;;;;;;;3.93;3.47;;;;;;;10.25;59.68;153992.75;5031878;28;21021;-85
2021/05/31 03:50:09;;;;;;;3.93;3.20;;;;;;;10.31;59.62;154007.00;5016571;28;21005;-85
2021/05/31 03:52:45;;;;;;;2.80;2.60;;;;;;;10.20;60.28;153979.81;5048547;28;21133;-85
2021/05/31 03:55:20;;;;;;;3.77;3.10;;;;;;;10.20;60.43;153978.50;5033120;28;20417;-85
2021/05/31 03:57:55;;;;;;;3.30;2.67;;;;;;;10.22;60.63;153983.66;5038584;28;20448;-85
2021/05/31 04:00:30;;;;;;;4.40;3.10;;;;;;;10.19;60.79;153975.94;5051360;28;20447;-86
2021/05/31 04:03:05;;;;;;;2.90;2.60;;;;;;;10.28;60.98;153999.22;5051599;28;20541;-85
2021/05/31 04:05:51;;;;;;;3.60;3.03;;;;;;;10.36;60.95;154021.22;5051227;28;20976;-85
2021/05/31 04:11:35;;;;;;;5.37;3.93;;;;;;;10.46;61.59;154044.56;5052803;28;20417;-86
2021/05/31 04:14:12;;;;;;;3.93;3.50;;;;;;;10.77;60.57;154126.13;5068064;28;20442;-86
2021/05/31 04:16:49;;;;;;;4.20;3.77;;;;;;;11.11;59.50;154211.59;5051327;28;20533;-86
2021/05/31 04:19:25;;;;;;;4.77;3.80;;;;;;;11.27;59.42;154253.03;5052458;28;20444;-86
2021/05/31 04:22:02;;;;;;;3.43;3.13;;;;;;;11.42;58.86;154291.91;5051393;28;20450;-86
2021/05/31 04:24:37;;;;;;;4.30;3.57;;;;;;;11.40;59.02;154286.72;5052512;28;20511;-86
2021/05/31 04:27:12;;;;;;;4.27;3.70;;;;;;;11.33;59.09;154269.84;5051284;28;20980;-86
2021/05/31 04:29:47;;;;;;;3.97;3.33;;;;;;;11.53;59.24;154320.41;5051110;28;20442;-86
2021/05/31 04:32:22;;;;;;;3.80;3.50;;;;;;;11.71;58.76;154365.81;5051352;28;20541;-86
2021/05/31 04:34:58;;;;;;;9.43;4.67;;;;;;;12.01;58.14;154444.91;5051074;28;20451;-86
2021/05/31 04:37:34;;;;;;;4.00;3.30;;;;;;;12.19;57.60;154491.56;5051323;28;20453;-86
2021/05/31 04:40:10;;;;;;;6.20;3.70;;;;;;;12.45;57.09;154556.34;5049652;28;20453;-86
2021/05/31 04:42:45;;;;;;;4.83;3.40;;;;;;;12.68;56.70;154617.31;5039567;28;20456;-86
2021/05/31 04:45:20;;;;;;;5.43;4.30;;;;;;;12.96;56.01;154688.66;5034999;28;20474;-87
2021/05/31 04:47:55;;;;;;;3.77;3.47;;;;;;;13.17;56.03;154743.22;5033666;28;20468;-86
2021/05/31 04:50:30;;;;;;;4.63;4.23;;;;;;;13.16;54.60;154740.59;5030984;28;20444;-86
2021/05/31 04:53:07;;;;;;;5.97;3.60;;;;;;;13.37;53.91;154795.09;5047552;28;20490;-87
2021/05/31 04:55:42;;;;;;;4.47;3.33;;;;;;;13.55;53.97;154840.53;5052000;28;20427;-87
2021/05/31 04:58:17;;;;;;;3.97;3.67;;;;;;;13.61;53.48;154854.81;5035310;28;20460;-87
2021/05/31 05:00:54;;;;;;;4.40;4.00;;;;;;;13.56;53.74;154843.09;5052025;28;20783;-87
2021/05/31 05:03:29;;;;;;;3.70;3.40;;;;;;;13.97;53.23;154949.56;5035126;28;20458;-87
2021/05/31 05:06:04;;;;;;;4.07;3.67;;;;;;;13.86;52.26;154919.69;5050642;28;20475;-87
2021/05/31 05:08:41;;;;;;;4.93;4.07;;;;;;;13.93;53.25;154937.84;5050343;28;20961;-87
2021/05/31 05:11:16;;;;;;;4.50;3.50;;;;;;;14.19;52.21;155005.34;5035447;28;20851;-87
2021/05/31 05:13:52;;;;;;;3.30;3.00;;;;;;;14.28;52.07;155028.75;5052359;28;20446;-87
2021/05/31 05:16:27;;;;;;;4.00;3.60;;;;;;;14.15;51.99;154995.00;5050656;28;20435;-87
2021/05/31 05:19:03;;;;;;;3.87;3.20;;;;;;;14.60;51.27;155110.63;5051202;28;20469;-86
2021/05/31 05:21:38;;;;;;;5.00;3.90;;;;;;;14.82;51.08;155166.47;5050607;28;20444;-86
2021/05/31 05:24:14;;;;;;;4.50;4.10;;;;;;;14.87;50.60;155179.47;5050426;28;20436;-86
2021/05/31 05:26:49;;;;;;;3.90;3.50;;;;;;;15.18;50.66;155260.00;5045243;28;20473;-86
2021/05/31 05:29:25;;;;;;;4.40;4.00;;;;;;;15.14;50.42;155250.91;5050472;28;20450;-86
2021/05/31 05:32:00;;;;;;;5.90;4.87;;;;;;;15.18;50.43;155260.00;5050473;28;20545;-86
2021/05/31 05:34:35;;;;;;;6.40;4.20;;;;;;;15.66;49.97;155384.84;5034905;28;20444;-86
2021/05/31 05:37:13;;;;;;;4.87;4.07;;;;;;;16.01;48.29;155473.25;5050392;28;20446;-86
2021/05/31 05:40:17;;;;;;;6.07;3.27;;;;;;;16.10;48.09;155496.63;5050369;28;20465;-88
2021/05/31 05:43:05;;;;;;;4.30;3.23;;;;;;;16.35;47.82;155561.66;5050157;28;20450;-88
2021/05/31 05:45:53;;;;;;;4.37;3.97;;;;;;;16.35;46.96;155561.66;5051467;28;20452;-87
2021/05/31 05:48:28;;;;;;;3.87;3.57;;;;;;;16.41;47.21;155577.28;5050395;28;20439;-87
2021/05/31 05:51:08;;;;;;;3.87;3.47;;;;;;;16.29;46.55;155546.06;5050344;28;20529;-87
2021/05/31 05:53:46;;;;;;;4.77;3.67;;;;;;;16.29;46.69;155546.06;5050324;28;20478;-87
2021/05/31 05:56:22;;;;;;;4.30;3.60;;;;;;;16.35;46.45;155561.66;5050208;28;20442;-87
2021/05/31 05:58:57;;;;;;;6.23;3.30;;;;;;;16.49;46.27;155598.09;5050423;28;20458;-87
2021/05/31 06:01:33;;;;;;;4.80;3.70;;;;;;;16.57;46.40;155617.66;5049968;28;20443;-87
2021/05/31 06:04:08;;;;;;;3.67;3.30;;;;;;;16.60;46.56;155626.72;5051624;28;20419;-87
2021/05/31 06:06:44;;;;;;;5.03;3.40;;;;;;;17.08;46.40;155750.34;5053369;28;20529;-87
2021/05/31 06:09:20;;;;;;;4.00;3.60;;;;;;;17.06;45.91;155745.13;5053749;28;20428;-88
2021/05/31 06:11:57;;;;;;;4.63;3.70;;;;;;;17.37;44.78;155824.50;5053673;28;20440;-87
2021/05/31 06:14:32;;;;;;;3.50;3.20;;;;;;;17.73;43.76;155918.31;5053533;28;20449;-88
2021/05/31 06:17:07;;;;;;;4.30;3.90;;;;;;;17.64;43.25;155894.84;5054675;28;20445;-88
2021/05/31 06:19:42;;;;;;;5.20;3.47;;;;;;;17.72;42.59;155915.69;5054743;28;20423;-88
2021/05/31 06:22:17;;;;;;;3.80;3.40;;;;;;;18.31;42.29;156066.75;5053638;28;20452;-87
2021/05/31 06:24:52;;;;;;;9.37;3.30;;;;;;;18.47;42.27;156108.44;5053331;28;20509;-88
2021/05/31 06:27:29;;;;;;;4.17;3.77;;;;;;;18.96;42.06;156236.13;5053552;28;20486;-88
2021/05/31 06:30:06;;;;;;;3.87;3.50;;;;;;;19.03;41.50;156254.41;5053357;28;21127;-88
2021/05/31 06:32:41;;;;;;;3.53;3.23;;;;;;;19.08;40.97;156267.44;5053207;28;20435;-88
2021/05/31 06:35:17;;;;;;;4.47;4.07;;;;;;;19.15;40.90;156284.34;5053453;28;20806;-88
2021/05/31 06:37:52;;;;;;;6.03;4.50;;;;;;;19.11;40.74;156273.94;5053318;28;20435;-88
2021/05/31 06:40:27;;;;;;;5.27;4.77;;;;;;;19.08;41.14;156267.44;5037759;28;20450;-88
2021/05/31 06:43:03;;;;;;;5.07;4.07;;;;;;;19.26;40.44;156314.34;5037925;28;20549;-88
2021/05/31 06:45:38;;;;;;;10.93;4.63;;;;;;;19.20;40.71;156298.69;5054325;28;20462;-88
2021/05/31 06:48:14;;;;;;;7.53;4.93;;;;;;;19.73;40.19;156434.28;5037757;28;20446;-88
2021/05/31 06:50:49;;;;;;;4.77;4.37;;;;;;;19.47;40.38;156367.81;5052762;28;20545;-88
2021/05/31 06:53:25;;;;;;;4.60;4.20;;;;;;;19.82;40.55;156459.09;5052580;28;20475;-88
2021/05/31 06:56:00;;;;;;;5.27;4.17;;;;;;;19.71;39.94;156429.09;5052923;28;20447;-88
2021/05/31 06:58:36;;;;;;;4.17;3.77;;;;;;;19.40;39.80;156350.91;5037637;28;20561;-88
2021/05/31 07:01:11;;;;;;;3.77;3.47;;;;;;;19.33;39.83;156331.25;5052752;28;20604;-87
2021/05/31 07:03:46;;;;;;;4.57;3.93;;;;;;;19.29;40.51;156320.84;5053999;28;20790;-87
2021/05/31 07:06:21;;;;;;;4.10;3.70;;;;;;;18.95;39.98;156233.56;5053875;28;20955;-88
2021/05/31 07:08:56;;;;;;;5.03;3.70;;;;;;;18.95;40.87;156233.56;5054436;28;20446;-88
2021/05/31 07:11:31;;;;;;;3.13;2.83;;;;;;;18.88;39.19;156215.28;5052658;28;20447;-88
2021/05/31 07:14:11;;;;;;;3.93;3.63;;;;;;;18.89;40.65;156217.91;5054287;28;20423;-88
2021/05/31 07:16:46;;;;;;;4.43;3.47;;;;;;;19.12;38.09;156277.84;5052252;28;20930;-88
2021/05/31 07:19:24;;;;;;;4.20;3.80;;;;;;;19.23;38.64;156305.19;5052591;28;20807;-88
2021/05/31 07:21:59;;;;;;;3.27;2.97;;;;;;;18.98;38.08;156240.06;5053770;28;20431;-90
2021/05/31 07:24:35;;;;;;;4.17;2.97;;;;;;;19.21;37.90;156301.31;5052506;28;20907;-88
2021/05/31 07:27:10;;;;;;;3.50;3.20;;;;;;;18.95;38.46;156233.56;5053865;28;20855;-87
2021/05/31 07:29:47;;;;;;;7.20;2.77;;;;;;;19.00;37.96;156245.28;5063508;28;20487;-87
2021/05/31 07:32:22;;;;;;;2.93;2.67;;;;;;;19.19;37.67;156294.81;5058086;28;20446;-88
2021/05/31 07:34:57;;;;;;;2.60;2.40;;;;;;;19.06;36.91;156260.91;5052485;28;20434;-87
2021/05/31 07:37:34;;;;;;;3.50;3.20;;;;;;;19.33;37.81;156332.56;5052107;28;20830;-87
2021/05/31 07:40:11;;;;;;;2.80;2.60;;;;;;;19.12;37.11;156276.53;5051885;28;20455;-87
2021/05/31 07:42:47;;;;;;;2.63;2.43;;;;;;;18.92;36.83;156225.72;5053335;28;20439;-88
2021/05/31 07:45:23;;;;;;;3.00;2.50;;;;;;;19.16;37.72;156286.97;5051970;28;20823;-88
2021/05/31 07:47:58;;;;;;;2.90;2.70;;;;;;;18.77;37.30;156186.66;5052256;28;20447;-88
2021/05/31 07:50:34;;;;;;;3.30;3.00;;;;;;;19.50;36.15;156375.66;5051948;28;20450;-87
2021/05/31 07:53:09;;;;;;;4.63;2.60;;;;;;;19.80;34.57;156452.59;5051786;28;20540;-89
2021/05/31 07:55:44;;;;;;;2.90;2.70;;;;;;;20.17;34.73;156549.06;5051651;28;20537;-88
2021/05/31 07:58:19;;;;;;;3.27;2.67;;;;;;;19.77;34.11;156444.75;5036206;28;20827;-89
2021/05/31 08:00:56;;;;;;;7.03;2.87;;;;;;;19.93;34.42;156486.47;5051328;28;21012;-87
2021/05/31 08:03:31;;;;;;;3.70;2.80;;;;;;;19.89;34.89;156477.34;5051679;28;20443;-87
2021/05/31 08:06:07;;;;;;;3.13;2.83;;;;;;;19.72;35.47;156431.72;5051532;28;20467;-88
2021/05/31 08:08:42;;;;;;;3.70;3.03;;;;;;;19.41;35.12;156353.47;5051736;28;20846;-89
2021/05/31 08:11:18;;;;;;;3.17;2.97;;;;;;;19.41;35.14;156352.16;5051423;28;20438;-88
2021/05/31 08:13:53;;;;;;;2.73;2.53;;;;;;;19.35;35.21;156337.78;5051458;28;20446;-88
2021/05/31 08:16:30;;;;;;;2.57;2.33;;;;;;;19.36;34.99;156339.09;5051096;28;20482;-89
2021/05/31 08:19:06;;;;;;;2.73;2.53;;;;;;;19.10;35.64;156271.31;5051770;28;20879;-87
2021/05/31 08:21:41;;;;;;;3.07;2.77;;;;;;;19.32;35.49;156330.00;5052708;28;20407;-88
2021/05/31 08:24:18;;;;;;;3.03;2.80;;;;;;;19.19;35.45;156296.13;5051406;28;20545;-89
2021/05/31 08:26:53;;;;;;;2.77;2.57;;;;;;;19.56;34.55;156391.31;5052334;28;20810;-88
2021/05/31 08:29:28;;;;;;;3.17;2.40;;;;;;;19.51;35.45;156378.28;5050773;28;20439;-88
2021/05/31 08:32:05;;;;;;;4.23;2.63;;;;;;;19.74;35.04;156436.91;5067747;28;20537;-88
2021/05/31 08:34:40;;;;;;;4.90;2.57;;;;;;;19.86;35.27;156468.19;5015910;28;20567;-88
2021/05/31 08:37:15;;;;;;;3.17;2.87;;;;;;;19.68;33.45;156421.25;5032693;28;20428;-88
2021/05/31 08:39:53;;;;;;;3.10;2.43;;;;;;;19.61;34.83;156403.03;5048168;28;20825;-88
2021/05/31 08:42:28;;;;;;;3.50;3.20;;;;;;;19.92;34.48;156485.16;5050907;28;20459;-88
2021/05/31 08:45:05;;;;;;;10.00;3.00;;;;;;;19.70;35.07;156427.78;5051011;28;20882;-89
2021/05/31 08:47:42;;;;;;;2.93;2.63;;;;;;;19.90;35.71;156478.66;5035382;28;20989;-88
2021/05/31 08:50:19;;;;;;;3.20;3.00;;;;;;;20.13;34.76;156538.63;5052336;28;20951;-88
2021/05/31 08:52:55;;;;;;;3.87;3.17;;;;;;;20.17;35.59;156549.06;5050737;28;20707;-88
2021/05/31 08:55:30;;;;;;;3.57;3.00;;;;;;;19.82;35.76;156459.09;5050994;28;20439;-89
2021/05/31 08:58:05;;;;;;;3.30;3.00;;;;;;;19.75;35.73;156439.56;5050831;28;20553;-89
2021/05/31 09:00:40;;;;;;;3.73;3.00;;;;;;;19.61;36.65;156403.03;5052295;28;20782;-90
2021/05/31 09:03:18;;;;;;;3.17;2.97;;;;;;;19.60;35.75;156401.72;5051259;28;20541;-89
2021/05/31 09:05:59;;;;;;;3.67;3.37;;;;;;;19.60;35.61;156401.72;5050932;28;20470;-89
2021/05/31 09:08:34;;;;;;;2.93;2.70;;;;;;;19.08;36.28;156267.44;5051481;28;20454;-90
2021/05/31 09:11:12;;;;;;;3.40;3.10;;;;;;;19.59;36.58;156397.81;5052073;28;20765;-88
2021/05/31 09:13:47;;;;;;;3.10;2.90;;;;;;;19.04;36.65;156256.97;5050901;28;20950;-89
2021/05/31 09:16:25;;;;;;;3.40;3.10;;;;;;;19.04;36.13;156256.97;5050762;28;20537;-87
2021/05/31 09:19:04;;;;;;;3.20;2.93;;;;;;;19.62;36.17;156405.66;5050915;28;20458;-88
2021/05/31 09:21:39;;;;;;;3.20;2.90;;;;;;;19.49;36.92;156373.03;5050768;28;20447;-89
2021/05/31 09:24:19;;;;;;;3.37;3.07;;;;;;;19.36;36.17;156339.09;5050708;28;20438;-89
2021/05/31 09:26:56;;;;;;;3.50;3.20;;;;;;;19.15;35.59;156284.34;5050556;28;20463;-89
2021/05/31 09:29:31;;;;;;;3.20;2.93;;;;;;;19.51;37.17;156376.97;5051815;28;20420;-89
2021/05/31 09:32:09;;;;;;;3.80;3.07;;;;;;;19.42;36.81;156356.09;5050560;28;20446;-89
2021/05/31 09:34:57;;;;;;;3.60;2.97;;;;;;;19.33;36.58;156332.56;5035197;28;20833;-89
2021/05/31 09:37:33;;;;;;;3.20;2.90;;;;;;;19.04;36.75;156256.97;5050710;28;20795;-89
2021/05/31 09:40:09;;;;;;;3.70;3.40;;;;;;;18.87;36.44;156211.41;5051378;28;20470;-89
2021/05/31 09:42:48;;;;;;;3.70;3.40;;;;;;;19.44;36.70;156361.31;5034569;28;20455;-88
2021/05/31 09:45:24;;;;;;;2.90;2.70;;;;;;;19.46;34.91;156363.94;5051063;28;20443;-88
2021/05/31 09:48:00;;;;;;;2.90;2.63;;;;;;;19.24;35.14;156307.84;5034528;28;20439;-89
2021/05/31 09:50:37;;;;;;;3.27;3.07;;;;;;;19.35;34.37;156337.78;5034672;28;20475;-88
2021/05/31 09:53:13;;;;;;;3.37;3.07;;;;;;;19.31;35.42;156327.38;5050763;28;20483;-89
2021/05/31 09:55:49;;;;;;;3.70;3.33;;;;;;;19.37;35.61;156343.06;5034471;28;20460;-89
2021/05/31 09:58:24;;;;;;;3.77;3.37;;;;;;;19.20;35.44;156298.69;5040298;28;20451;-88
2021/05/31 10:01:00;;;;;;;3.47;2.90;;;;;;;19.35;35.09;156337.78;5034223;28;20467;-88
2021/05/31 10:03:42;;;;;;;3.97;3.20;;;;;;;18.66;35.81;156158.00;5018938;28;20459;-88
2021/05/31 10:06:33;;;;;;;4.80;3.37;;;;;;;18.95;36.80;156233.56;5035644;28;20464;-88
2021/05/31 10:09:08;;;;;;;3.23;2.70;;;;;;;18.89;35.15;156216.59;5034204;28;20445;-89
2021/05/31 10:11:45;;;;;;;3.10;2.80;;;;;;;18.79;35.75;156191.84;5034052;28;20527;-88
2021/05/31 10:14:20;;;;;;;3.50;3.20;;;;;;;19.05;35.91;156258.28;5038342;28;20451;-89
2021/05/31 10:16:55;;;;;;;3.60;3.13;;;;;;;18.86;36.66;156210.09;5065401;28;20423;-89
2021/05/31 10:19:31;;;;;;;3.43;3.13;;;;;;;18.99;36.75;156243.97;5061065;28;20415;-88
2021/05/31 10:22:08;;;;;;;3.30;3.00;;;;;;;18.91;35.58;156221.78;5055869;28;20537;-89
2021/05/31 10:24:43;;;;;;;3.70;2.90;;;;;;;19.13;36.08;156279.16;5053828;28;20447;-89
2021/05/31 10:27:20;;;;;;;3.63;3.30;;;;;;;19.05;36.16;156259.59;5053578;28;20501;-88
2021/05/31 10:29:55;;;;;;;3.47;3.17;;;;;;;18.84;36.47;156204.88;5053181;28;21038;-88
2021/05/31 10:32:30;;;;;;;3.47;3.17;;;;;;;18.34;36.92;156074.56;5054903;28;20675;-89
2021/05/31 10:35:15;;;;;;;3.53;3.17;;;;;;;18.59;37.00;156139.72;5053457;28;20443;-89
2021/05/31 10:37:55;;;;;;;2.90;2.70;;;;;;;18.43;36.32;156097.97;5054860;28;20422;-89
2021/05/31 10:40:33;;;;;;;4.53;4.13;;;;;;;18.67;36.22;156160.56;5053595;28;20447;-89
2021/05/31 10:43:10;;;;;;;3.20;2.90;;;;;;;18.54;36.48;156126.69;5053227;28;20933;-89
2021/05/31 10:45:47;;;;;;;4.83;2.87;;;;;;;18.42;36.96;156095.41;5053066;28;20874;-88
2021/05/31 10:48:22;;;;;;;6.97;3.20;;;;;;;18.96;36.75;156234.81;5054559;28;20477;-88
2021/05/31 10:50:59;;;;;;;3.80;3.40;;;;;;;18.96;37.21;156234.81;5052592;28;20443;-89
2021/05/31 10:53:38;;;;;;;2.77;2.57;;;;;;;18.44;36.04;156101.91;5053128;28;20992;-88
2021/05/31 10:56:26;;;;;;;3.87;3.30;;;;;;;18.77;37.08;156187.91;5054330;28;20881;-90
2021/05/31 10:59:01;;;;;;;3.13;2.87;;;;;;;19.10;35.95;156271.31;5052800;28;20466;-90
2021/05/31 11:01:39;;;;;;;3.73;3.10;;;;;;;18.68;36.80;156163.19;5052769;28;20514;-89
2021/05/31 11:04:22;;;;;;;3.70;3.23;;;;;;;18.64;35.34;156152.75;5052788;28;20452;-91
2021/05/31 11:07:01;;;;;;;4.13;3.20;;;;;;;18.34;35.32;156075.88;5052966;28;20474;-91
2021/05/31 11:09:37;;;;;;;3.37;2.93;;;;;;;18.27;35.97;156058.91;5053080;28;20452;-90
2021/05/31 11:12:13;;;;;;;3.37;3.17;;;;;;;18.27;36.83;156058.91;5068587;28;20538;-91
2021/05/31 11:14:48;;;;;;;3.40;3.07;;;;;;;18.09;37.20;156012.03;5053204;28;20442;-91
2021/05/31 11:17:24;;;;;;;3.43;3.13;;;;;;;18.21;37.23;156043.28;5052899;28;20448;-91
2021/05/31 11:20:10;;;;;;;3.97;3.30;;;;;;;18.12;36.65;156019.88;5052796;28;20436;-91
2021/05/31 11:22:53;;;;;;;2.90;2.60;;;;;;;18.56;35.47;156131.94;5054069;28;20425;-90
2021/05/31 11:25:30;;;;;;;3.23;2.77;;;;;;;18.63;36.51;156150.16;5052445;28;20544;-89
2021/05/31 11:28:05;;;;;;;3.63;3.33;;;;;;;18.94;35.33;156229.63;5048623;28;20838;-89
2021/05/31 11:30:40;;;;;;;3.10;2.80;;;;;;;19.30;35.89;156324.75;5033711;28;20781;-91
2021/05/31 11:33:16;;;;;;;3.33;2.50;;;;;;;19.11;35.20;156273.94;5032898;28;20442;-91
2021/05/31 11:35:51;;;;;;;3.00;2.80;;;;;;;18.54;35.13;156126.69;5033745;28;20427;-91
2021/05/31 11:38:26;;;;;;;3.40;2.50;;;;;;;18.48;35.80;156111.09;5037764;28;20449;-91
2021/05/31 11:41:08;;;;;;;3.03;2.60;;;;;;;18.88;34.61;156214.03;5052390;28;20450;-90
2021/05/31 11:43:49;;;;;;;3.13;2.83;;;;;;;18.86;35.27;156210.09;5052297;28;20932;-90
2021/05/31 11:46:24;;;;;;;3.80;3.50;;;;;;;18.63;36.03;156150.16;5036784;28;20468;-91
2021/05/31 11:49:06;;;;;;;3.30;3.03;;;;;;;18.94;35.96;156230.94;5052295;28;20458;-93
2021/05/31 11:51:41;;;;;;;3.43;3.13;;;;;;;19.00;34.82;156246.59;5051907;28;20439;-91
2021/05/31 11:54:20;;;;;;;3.10;2.90;;;;;;;18.79;35.99;156191.84;5052492;28;20442;-94
2021/05/31 11:57:00;;;;;;;3.90;2.83;;;;;;;19.07;36.02;156264.81;5053745;28;20788;-93
2021/05/31 11:59:36;;;;;;;3.30;2.93;;;;;;;19.06;35.57;156260.91;5032966;28;20524;-93
2021/05/31 12:02:14;;;;;;;3.33;2.80;;;;;;;18.95;37.22;156233.56;5052316;28;20499;-93
2021/05/31 12:04:50;;;;;;;3.27;2.70;;;;;;;18.88;35.88;156215.28;5052327;28;20450;-92
2021/05/31 12:07:25;;;;;;;3.07;2.77;;;;;;;19.07;35.81;156264.81;5052721;28;20474;-93
2021/05/31 12:10:02;;;;;;;3.37;3.07;;;;;;;19.18;35.86;156292.19;5052220;28;20446;-95